createdAt,value
2023-02-02T00:02:00.476Z,6.29
2023-02-02T00:04:32.932Z,6.28
2023-02-02T00:06:59.808Z,6.39
2023-02-02T00:09:31.239Z,6.36
2023-02-02T00:11:58.752Z,6.37
2023-02-02T00:14:25.256Z,6.45
2023-02-02T00:16:53.414Z,6.41
2023-02-02T00:19:22.175Z,6.29
2023-02-02T00:21:49.014Z,6.22
2023-02-02T00:24:18.370Z,6.37
2023-02-02T00:26:50.778Z,6.35
2023-02-02T00:29:20.633Z,6.24
2023-02-02T00:31:47.275Z,6.31
2023-02-02T00:34:14.534Z,6.31
2023-02-02T00:36:41.679Z,6.29
2023-02-02T00:39:09.607Z,6.32
2023-02-02T00:41:35.989Z,6.33
2023-02-02T00:44:21.091Z,6.49
2023-02-02T00:46:47.521Z,6.30
2023-02-02T00:49:13.891Z,6.38
2023-02-02T00:51:40.295Z,6.31
2023-02-02T00:54:06.717Z,6.45
2023-02-02T00:56:33.090Z,6.47
2023-02-02T00:58:59.563Z,6.39
2023-02-02T01:01:26.292Z,6.34
2023-02-02T01:03:52.767Z,6.31
2023-02-02T01:06:19.423Z,6.30
2023-02-02T01:08:45.835Z,6.38
2023-02-02T01:11:12.276Z,6.33
2023-02-02T01:13:38.622Z,6.28
2023-02-02T01:16:05.753Z,6.35
2023-02-02T01:18:32.353Z,6.29
2023-02-02T01:21:06.678Z,6.26
2023-02-02T01:23:33.277Z,6.29
2023-02-02T01:26:01.495Z,6.17
2023-02-02T01:28:28.823Z,6.15
2023-02-02T01:30:55.698Z,6.18
2023-02-02T01:33:22.608Z,6.08
2023-02-02T01:35:54.175Z,6.18
2023-02-02T01:38:21.853Z,6.21
2023-02-02T01:40:55.751Z,6.18
2023-02-02T01:43:31.440Z,6.20
2023-02-02T01:45:58.825Z,6.37
2023-02-02T01:48:31.572Z,6.34
2023-02-02T01:51:01.253Z,6.26
2023-02-02T01:53:27.814Z,6.18
2023-02-02T01:55:54.644Z,6.31
2023-02-02T01:58:24.771Z,6.21
2023-02-02T02:00:51.855Z,6.12
2023-02-02T02:03:21.137Z,6.14
2023-02-02T02:05:52.701Z,6.13
2023-02-02T02:08:25.786Z,6.32
2023-02-02T02:10:52.555Z,6.24
2023-02-02T02:13:20.356Z,6.09
2023-02-02T02:16:20.114Z,6.03
2023-02-02T02:19:01.504Z,5.98
2023-02-02T02:21:55.631Z,5.94
2023-02-02T02:25:16.895Z,5.90
2023-02-02T02:28:15.739Z,5.83
2023-02-02T02:31:02.504Z,5.84
2023-02-02T02:33:28.835Z,5.81
2023-02-02T02:36:05.150Z,5.83
2023-02-02T02:38:46.531Z,5.81
2023-02-02T02:41:22.104Z,5.84
2023-02-02T02:43:56.657Z,5.80
2023-02-02T02:46:23.354Z,5.79
2023-02-02T02:48:50.342Z,5.78
2023-02-02T02:51:55.252Z,5.81
2023-02-02T02:54:27.476Z,5.78
2023-02-02T02:57:13.226Z,5.80
2023-02-02T03:00:01.230Z,5.81
2023-02-02T03:02:48.237Z,5.81
2023-02-02T03:05:26.977Z,5.78
2023-02-02T03:08:20.524Z,5.79
2023-02-02T03:10:47.293Z,5.82
2023-02-02T03:13:14.485Z,5.84
2023-02-02T03:15:42.257Z,5.84
2023-02-02T03:18:08.732Z,5.85
2023-02-02T03:20:35.269Z,5.87
2023-02-02T03:23:01.634Z,5.85
2023-02-02T03:25:28.235Z,5.86
2023-02-02T03:27:54.622Z,5.88
2023-02-02T03:30:22.346Z,5.84
2023-02-02T03:32:49.625Z,5.85
2023-02-02T03:35:16.076Z,5.88
2023-02-02T03:37:42.460Z,5.85
2023-02-02T03:40:09.456Z,5.86
2023-02-02T03:42:35.808Z,5.89
2023-02-02T03:45:02.395Z,5.88
2023-02-02T03:47:29.707Z,5.88
2023-02-02T03:49:56.659Z,5.82
2023-02-02T03:52:23.466Z,5.84
2023-02-02T03:54:50.112Z,5.91
2023-02-02T03:57:16.513Z,5.89
2023-02-02T03:59:42.927Z,5.86
2023-02-02T04:02:09.648Z,5.87
2023-02-02T04:04:36.077Z,5.89
2023-02-02T04:07:02.502Z,5.92
2023-02-02T04:09:28.890Z,5.93
2023-02-02T04:11:55.295Z,5.95
2023-02-02T04:14:21.667Z,5.97
2023-02-02T04:16:47.999Z,5.98
2023-02-02T04:19:14.500Z,6.10
2023-02-02T04:21:40.836Z,6.03
2023-02-02T04:24:10.868Z,6.10
2023-02-02T04:26:37.210Z,6.09
2023-02-02T04:29:03.720Z,6.19
2023-02-02T04:31:30.221Z,6.20
2023-02-02T04:33:56.928Z,6.22
2023-02-02T04:36:23.434Z,6.19
2023-02-02T04:38:50.885Z,6.20
2023-02-02T04:41:18.802Z,6.25
2023-02-02T04:43:45.251Z,6.28
2023-02-02T04:46:12.042Z,6.28
2023-02-02T04:48:38.581Z,6.30
2023-02-02T04:51:06.772Z,6.31
2023-02-02T04:53:33.468Z,6.34
2023-02-02T04:56:06.195Z,6.30
2023-02-02T04:58:32.888Z,6.35
2023-02-02T05:00:59.457Z,6.31
2023-02-02T05:03:25.877Z,6.29
2023-02-02T05:05:52.293Z,6.26
2023-02-02T05:08:18.715Z,6.25
2023-02-02T05:10:45.146Z,6.26
2023-02-02T05:13:11.481Z,6.22
2023-02-02T05:15:37.847Z,6.25
2023-02-02T05:18:04.158Z,6.21
2023-02-02T05:20:30.499Z,6.22
2023-02-02T05:22:56.927Z,6.18
2023-02-02T05:25:23.529Z,6.19
2023-02-02T05:27:50.181Z,6.28
2023-02-02T05:30:17.042Z,6.24
2023-02-02T05:32:43.377Z,6.26
2023-02-02T05:35:10.263Z,6.27
2023-02-02T05:37:36.647Z,6.26
2023-02-02T05:40:03.824Z,6.25
2023-02-02T05:42:30.169Z,6.33
2023-02-02T05:44:56.552Z,6.29
2023-02-02T05:47:22.940Z,6.30
2023-02-02T05:49:49.820Z,6.28
2023-02-02T05:52:18.327Z,6.31
2023-02-02T05:54:44.997Z,6.29
2023-02-02T05:57:11.387Z,6.34
2023-02-02T05:59:37.784Z,6.31
2023-02-02T06:02:04.219Z,6.32
2023-02-02T06:04:30.609Z,6.32
2023-02-02T06:06:57.975Z,6.38
2023-02-02T06:09:25.204Z,6.35
2023-02-02T06:11:51.580Z,6.36
2023-02-02T06:14:17.904Z,6.38
2023-02-02T06:16:44.252Z,6.35
2023-02-02T06:19:10.683Z,6.33
2023-02-02T06:21:37.090Z,6.32
2023-02-02T06:24:03.473Z,6.27
2023-02-02T06:26:29.866Z,6.29
2023-02-02T06:28:56.494Z,6.33
2023-02-02T06:31:23.410Z,6.26
2023-02-02T06:33:57.799Z,6.30
2023-02-02T06:36:24.887Z,6.30
2023-02-02T06:38:53.148Z,6.29
2023-02-02T06:41:20.322Z,6.29
2023-02-02T06:43:47.803Z,6.34
2023-02-02T06:46:14.490Z,6.34
2023-02-02T06:48:40.947Z,6.38
2023-02-02T06:51:07.405Z,6.39
2023-02-02T06:53:34.535Z,6.53
2023-02-02T06:56:02.899Z,6.50
2023-02-02T06:58:30.934Z,6.50
2023-02-02T07:01:08.877Z,6.52
2023-02-02T07:03:35.754Z,6.51
2023-02-02T07:06:22.654Z,6.55
2023-02-02T07:09:02.135Z,6.60
2023-02-02T07:11:29.724Z,6.57
2023-02-02T07:13:56.259Z,6.53
2023-02-02T07:16:23.093Z,6.58
2023-02-02T07:18:49.704Z,6.61
2023-02-02T07:21:18.953Z,6.58
2023-02-02T07:23:45.473Z,6.61
2023-02-02T07:26:12.339Z,6.57
2023-02-02T07:28:38.690Z,6.59
2023-02-02T07:31:15.775Z,6.65
2023-02-02T07:33:43.403Z,6.61
2023-02-02T07:36:11.363Z,6.65
2023-02-02T07:38:37.776Z,6.68
2023-02-02T07:41:04.777Z,6.66
2023-02-02T07:43:31.228Z,6.64
2023-02-02T07:46:02.751Z,6.66
2023-02-02T07:48:30.364Z,6.64
2023-02-02T07:51:03.845Z,6.67
2023-02-02T07:53:30.766Z,6.67
2023-02-02T07:56:07.793Z,6.65
2023-02-02T07:58:34.386Z,6.64
2023-02-02T08:01:05.136Z,6.66
2023-02-02T08:03:31.733Z,6.66
2023-02-02T08:05:58.725Z,6.66
2023-02-02T08:08:25.237Z,6.67
2023-02-02T08:10:52.514Z,6.73
2023-02-02T08:13:19.089Z,6.77
2023-02-02T08:15:45.567Z,6.74
2023-02-02T08:18:12.021Z,6.72
2023-02-02T08:20:38.390Z,6.76
2023-02-02T08:23:04.859Z,6.77
2023-02-02T08:25:31.203Z,6.78
2023-02-02T08:28:01.456Z,6.74
2023-02-02T08:30:27.911Z,6.81
2023-02-02T08:32:54.274Z,6.81
2023-02-02T08:35:21.658Z,6.88
2023-02-02T08:37:49.412Z,6.91
2023-02-02T08:40:15.947Z,6.94
2023-02-02T08:42:43.361Z,6.94
2023-02-02T08:46:02.657Z,6.98
2023-02-02T08:48:10.797Z,7.00
2023-02-02T08:50:37.969Z,7.03
2023-02-02T08:53:04.392Z,7.06
2023-02-02T08:55:30.817Z,7.09
2023-02-02T08:57:57.165Z,7.08
2023-02-02T09:00:23.709Z,7.08
2023-02-02T09:02:51.067Z,7.09
2023-02-02T09:05:17.471Z,7.07
2023-02-02T09:07:43.833Z,7.08
2023-02-02T09:10:10.575Z,7.08
2023-02-02T09:12:37.030Z,7.10
2023-02-02T09:15:03.509Z,7.16
2023-02-02T09:17:30.269Z,7.13
2023-02-02T09:19:56.604Z,7.17
2023-02-02T09:22:22.979Z,7.18
2023-02-02T09:24:49.317Z,7.22
2023-02-02T09:27:15.669Z,7.21
2023-02-02T09:29:42.025Z,7.29
2023-02-02T09:32:09.309Z,7.31
2023-02-02T09:34:35.894Z,7.32
2023-02-02T09:37:02.355Z,7.38
2023-02-02T09:39:28.885Z,7.39
2023-02-02T09:42:30.381Z,7.46
2023-02-02T09:45:03.365Z,7.47
2023-02-02T09:47:55.584Z,7.53
2023-02-02T09:50:32.342Z,7.54
2023-02-02T09:53:12.365Z,7.51
2023-02-02T09:55:45.289Z,7.52
2023-02-02T09:58:23.044Z,7.54
2023-02-02T10:01:08.691Z,7.55
2023-02-02T10:03:50.046Z,7.53
2023-02-02T10:06:38.569Z,7.50
2023-02-02T10:09:26.356Z,7.51
2023-02-02T10:12:23.560Z,7.48
2023-02-02T10:14:58.850Z,7.54
2023-02-02T10:17:42.238Z,7.52
2023-02-02T10:20:18.355Z,7.54
2023-02-02T10:22:46.036Z,7.50
2023-02-02T10:25:14.607Z,7.50
2023-02-02T10:27:46.468Z,7.52
2023-02-02T10:30:26.009Z,7.55
2023-02-02T10:33:05.815Z,7.58
2023-02-02T10:35:45.634Z,7.56
2023-02-02T10:38:33.880Z,7.56
2023-02-02T10:41:30.222Z,7.54
2023-02-02T10:44:12.656Z,7.54
2023-02-02T10:46:41.686Z,7.57
2023-02-02T10:49:33.908Z,7.61
2023-02-02T10:52:22.612Z,7.64
2023-02-02T10:55:15.949Z,7.63
2023-02-02T10:58:08.839Z,7.63
2023-02-02T11:00:43.531Z,7.59
2023-02-02T11:03:11.268Z,7.63
2023-02-02T11:05:56.882Z,7.63
2023-02-02T11:08:29.855Z,7.61
2023-02-02T11:10:58.329Z,7.61
2023-02-02T11:13:31.070Z,7.56
2023-02-02T11:16:15.767Z,7.57
2023-02-02T11:18:44.318Z,7.53
2023-02-02T11:21:37.944Z,7.60
2023-02-02T11:24:07.438Z,7.62
2023-02-02T11:26:51.835Z,7.56
2023-02-02T11:29:24.607Z,7.55
2023-02-02T11:31:50.973Z,7.51
2023-02-02T11:34:20.954Z,7.51
2023-02-02T11:37:14.581Z,7.62
2023-02-02T11:39:44.274Z,7.63
2023-02-02T11:42:17.505Z,7.68
2023-02-02T11:44:54.905Z,7.61
2023-02-02T11:47:25.606Z,7.67
2023-02-02T11:49:52.330Z,7.71
2023-02-02T11:52:22.902Z,7.76
2023-02-02T11:55:15.595Z,7.79
2023-02-02T11:58:24.830Z,7.84
2023-02-02T12:01:00.519Z,7.85
2023-02-02T12:03:47.922Z,7.91
2023-02-02T12:06:25.437Z,7.88
2023-02-02T12:08:56.995Z,7.89
2023-02-02T12:11:35.434Z,7.93
2023-02-02T12:14:32.897Z,7.92
2023-02-02T12:17:14.562Z,7.88
2023-02-02T12:20:05.311Z,7.87
2023-02-02T12:22:41.279Z,7.90
2023-02-02T12:25:44.735Z,7.89
2023-02-02T12:28:29.469Z,7.90
2023-02-02T12:31:08.147Z,7.91
2023-02-02T12:33:47.002Z,7.95
2023-02-02T12:36:37.627Z,7.89
2023-02-02T12:39:06.846Z,7.89
2023-02-02T12:42:00.410Z,7.95
2023-02-02T12:44:33.331Z,7.94
2023-02-02T12:47:08.872Z,7.95
2023-02-02T12:49:49.139Z,7.96
2023-02-02T12:52:40.179Z,8.02
2023-02-02T12:55:21.485Z,8.07
2023-02-02T12:57:50.760Z,8.06
2023-02-02T13:00:20.260Z,8.17
2023-02-02T13:03:05.380Z,8.18
2023-02-02T13:05:53.725Z,8.14
2023-02-02T13:08:30.475Z,8.05
2023-02-02T13:11:05.285Z,8.00
2023-02-02T13:13:37.004Z,8.12
2023-02-02T13:16:06.720Z,8.08
2023-02-02T13:18:40.221Z,8.12
2023-02-02T13:21:11.359Z,8.04
2023-02-02T13:23:42.731Z,8.00
2023-02-02T13:26:21.688Z,8.02
2023-02-02T13:29:09.198Z,8.02
2023-02-02T13:31:41.868Z,8.04
2023-02-02T13:34:21.125Z,7.97
2023-02-02T13:36:51.114Z,8.08
2023-02-02T13:39:27.468Z,8.05
2023-02-02T13:41:54.062Z,7.99
2023-02-02T13:44:35.624Z,8.00
2023-02-02T13:47:19.240Z,8.04
2023-02-02T13:49:52.393Z,8.09
2023-02-02T13:52:50.474Z,8.11
2023-02-02T13:55:39.385Z,8.20
2023-02-02T13:58:21.104Z,8.18
2023-02-02T14:00:51.037Z,8.19
2023-02-02T14:03:28.044Z,8.13
2023-02-02T14:06:09.823Z,8.10
2023-02-02T14:08:37.057Z,8.10
2023-02-02T14:11:07.919Z,8.14
2023-02-02T14:14:02.583Z,8.11
2023-02-02T14:16:31.717Z,8.19
2023-02-02T14:18:59.439Z,8.16
2023-02-02T14:21:32.077Z,8.15
2023-02-02T14:23:59.110Z,8.11
2023-02-02T14:26:48.346Z,8.08
2023-02-02T14:29:29.340Z,8.18
2023-02-02T14:31:56.613Z,8.07
2023-02-02T14:34:35.060Z,8.06
2023-02-02T14:37:22.781Z,8.14
2023-02-02T14:40:07.465Z,8.14
2023-02-02T14:43:08.514Z,8.14
2023-02-02T14:45:39.273Z,8.16
2023-02-02T14:48:19.028Z,8.26
2023-02-02T14:50:51.115Z,8.38
2023-02-02T14:53:22.139Z,8.39
2023-02-02T14:55:55.197Z,8.37
2023-02-02T14:58:25.409Z,8.37
2023-02-02T15:01:02.493Z,8.35
2023-02-02T15:04:06.169Z,8.36
2023-02-02T15:06:32.558Z,8.44
2023-02-02T15:09:20.932Z,8.39
2023-02-02T15:12:01.183Z,8.41
2023-02-02T15:14:52.879Z,8.41
2023-02-02T15:17:27.699Z,8.38
2023-02-02T15:20:13.954Z,8.34
2023-02-02T15:23:02.066Z,8.29
2023-02-02T15:25:41.520Z,8.26
2023-02-02T15:28:13.722Z,8.19
2023-02-02T15:30:44.166Z,8.23
2023-02-02T15:33:29.930Z,8.24
2023-02-02T15:35:58.890Z,8.15
2023-02-02T15:38:33.637Z,8.23
2023-02-02T15:41:05.173Z,8.19
2023-02-02T15:43:31.665Z,8.24
2023-02-02T15:46:04.357Z,8.25
2023-02-02T15:48:32.260Z,8.35
2023-02-02T15:51:06.353Z,8.33
2023-02-02T15:53:35.050Z,8.37
2023-02-02T15:56:35.041Z,8.31
2023-02-02T15:59:01.752Z,8.33
2023-02-02T16:01:30.651Z,8.38
2023-02-02T16:04:27.159Z,8.29
2023-02-02T16:06:53.839Z,8.29
2023-02-02T16:09:26.088Z,8.31
2023-02-02T16:11:52.965Z,8.29
2023-02-02T16:14:19.498Z,8.24
2023-02-02T16:16:47.569Z,8.23
2023-02-02T16:19:22.877Z,8.25
2023-02-02T16:21:59.203Z,8.25
2023-02-02T16:24:33.704Z,8.23
2023-02-02T16:27:01.605Z,8.21
2023-02-02T16:29:28.182Z,8.23
2023-02-02T16:31:55.812Z,8.23
2023-02-02T16:34:40.634Z,8.18
2023-02-02T16:37:11.767Z,8.26
2023-02-02T16:39:38.097Z,8.18
2023-02-02T16:42:20.575Z,8.27
2023-02-02T16:44:48.619Z,8.28
2023-02-02T16:47:27.224Z,8.29
2023-02-02T16:49:55.131Z,8.20
2023-02-02T16:52:21.696Z,8.20
2023-02-02T16:54:55.327Z,8.15
2023-02-02T16:57:26.422Z,8.17
2023-02-02T16:59:57.936Z,8.16
2023-02-02T17:02:30.601Z,8.27
2023-02-02T17:05:15.560Z,8.24
2023-02-02T17:08:05.448Z,8.26
2023-02-02T17:10:35.764Z,8.26
2023-02-02T17:13:04.137Z,8.20
2023-02-02T17:15:35.774Z,8.26
2023-02-02T17:18:04.499Z,8.22
2023-02-02T17:20:32.317Z,8.16
2023-02-02T17:22:59.904Z,8.18
2023-02-02T17:25:29.957Z,8.18
2023-02-02T17:27:58.477Z,8.19
2023-02-02T17:30:25.173Z,8.27
2023-02-02T17:32:51.626Z,8.26
2023-02-02T17:35:20.952Z,8.25
2023-02-02T17:37:47.912Z,8.24
2023-02-02T17:40:15.727Z,8.17
2023-02-02T17:42:42.498Z,8.21
2023-02-02T17:45:19.434Z,8.14
2023-02-02T17:47:45.813Z,8.20
2023-02-02T17:50:12.153Z,8.20
2023-02-02T17:52:39.108Z,8.19
2023-02-02T17:55:12.828Z,8.12
2023-02-02T17:57:39.168Z,8.12
2023-02-02T18:00:05.993Z,8.06
2023-02-02T18:02:32.570Z,8.15
2023-02-02T18:04:59.088Z,8.12
2023-02-02T18:07:25.477Z,8.08
2023-02-02T18:09:51.806Z,8.13
2023-02-02T18:12:18.207Z,8.09
2023-02-02T18:14:44.591Z,8.09
2023-02-02T18:17:10.968Z,8.05
2023-02-02T18:19:39.050Z,8.05
2023-02-02T18:22:06.440Z,8.08
2023-02-02T18:24:32.805Z,8.08
2023-02-02T18:26:59.289Z,8.08
2023-02-02T18:29:25.646Z,8.02
2023-02-02T18:31:52.285Z,8.04
2023-02-02T18:34:18.677Z,7.97
2023-02-02T18:36:44.995Z,8.05
2023-02-02T18:39:11.409Z,7.93
2023-02-02T18:41:37.777Z,7.90
2023-02-02T18:44:04.334Z,7.82
2023-02-02T18:46:33.713Z,7.77
2023-02-02T18:49:00.118Z,7.76
2023-02-02T18:51:26.840Z,7.73
2023-02-02T18:53:59.579Z,7.78
2023-02-02T18:56:27.215Z,7.81
2023-02-02T18:58:53.829Z,7.78
2023-02-02T19:01:21.110Z,7.77
2023-02-02T19:03:52.325Z,7.80
2023-02-02T19:06:38.573Z,7.87
2023-02-02T19:09:05.489Z,7.81
2023-02-02T19:11:38.954Z,7.74
2023-02-02T19:14:18.821Z,7.80
2023-02-02T19:16:47.283Z,7.70
2023-02-02T19:19:33.130Z,7.68
2023-02-02T19:22:01.707Z,7.70
2023-02-02T19:24:42.082Z,7.66
2023-02-02T19:27:22.948Z,7.59
2023-02-02T19:29:51.034Z,7.60
2023-02-02T19:32:21.530Z,7.59
2023-02-02T19:34:49.242Z,7.58
2023-02-02T19:37:19.881Z,7.58
2023-02-02T19:39:47.016Z,7.58
2023-02-02T19:42:13.389Z,7.60
2023-02-02T19:44:41.128Z,7.58
2023-02-02T19:47:33.798Z,7.51
2023-02-02T19:50:13.913Z,7.52
2023-02-02T19:52:41.660Z,7.51
2023-02-02T19:55:25.786Z,7.53
2023-02-02T19:58:09.534Z,7.52
2023-02-02T20:00:44.683Z,7.52
2023-02-02T20:03:14.495Z,7.54
2023-02-02T20:05:44.462Z,7.55
2023-02-02T20:08:36.012Z,7.56
2023-02-02T20:11:19.371Z,7.59
2023-02-02T20:13:48.235Z,7.64
2023-02-02T20:16:22.693Z,7.58
2023-02-02T20:18:53.531Z,7.61
2023-02-02T20:21:23.732Z,7.60
2023-02-02T20:23:50.119Z,7.64
2023-02-02T20:26:19.721Z,7.60
2023-02-02T20:28:46.366Z,7.55
2023-02-02T20:31:16.829Z,7.54
2023-02-02T20:33:46.913Z,7.56
2023-02-02T20:36:30.160Z,7.57
2023-02-02T20:38:59.547Z,7.52
2023-02-02T20:41:25.941Z,7.49
2023-02-02T20:43:52.380Z,7.48
2023-02-02T20:46:18.755Z,7.48
2023-02-02T20:48:45.225Z,7.53
2023-02-02T20:51:11.803Z,7.42
2023-02-02T20:53:39.423Z,7.41
2023-02-02T20:56:06.037Z,7.41
2023-02-02T20:58:32.586Z,7.40
2023-02-02T21:01:00.164Z,7.36
2023-02-02T21:03:26.525Z,7.32
2023-02-02T21:05:53.040Z,7.34
2023-02-02T21:08:19.446Z,7.31
2023-02-02T21:10:45.831Z,7.30
2023-02-02T21:13:12.250Z,7.31
2023-02-02T21:15:38.880Z,7.35
2023-02-02T21:18:05.261Z,7.35
2023-02-02T21:20:31.656Z,7.34
2023-02-02T21:22:58.012Z,7.40
2023-02-02T21:25:24.404Z,7.44
2023-02-02T21:27:50.823Z,7.43
2023-02-02T21:30:17.219Z,7.48
2023-02-02T21:32:44.068Z,7.48
2023-02-02T21:35:10.447Z,7.51
2023-02-02T21:37:37.287Z,7.49
2023-02-02T21:40:12.938Z,7.53
2023-02-02T21:42:39.343Z,7.55
2023-02-02T21:45:20.930Z,7.58
2023-02-02T21:47:50.964Z,7.55
2023-02-02T21:50:19.683Z,7.60
2023-02-02T21:52:46.684Z,7.60
2023-02-02T21:55:31.330Z,7.57
2023-02-02T21:57:58.345Z,7.50
2023-02-02T22:00:30.786Z,7.47
2023-02-02T22:02:58.768Z,7.43
2023-02-02T22:05:36.391Z,7.41
2023-02-02T22:08:09.392Z,7.37
2023-02-02T22:10:40.164Z,7.33
2023-02-02T22:13:24.752Z,7.26
2023-02-02T22:15:52.729Z,7.20
2023-02-02T22:18:21.836Z,7.16
2023-02-02T22:20:50.658Z,7.06
2023-02-02T22:23:19.539Z,7.15
2023-02-02T22:25:47.910Z,7.16
2023-02-02T22:28:21.732Z,7.08
2023-02-02T22:30:48.684Z,7.14
2023-02-02T22:33:15.117Z,7.23
2023-02-02T22:35:42.039Z,7.32
2023-02-02T22:38:08.690Z,7.22
2023-02-02T22:40:35.043Z,7.23
2023-02-02T22:43:04.403Z,7.19
2023-02-02T22:45:30.799Z,7.12
2023-02-02T22:47:57.385Z,7.14
2023-02-02T22:50:27.004Z,7.20
2023-02-02T22:52:53.623Z,7.21
2023-02-02T22:55:20.573Z,7.21
2023-02-02T22:57:47.246Z,7.21
2023-02-02T23:00:21.945Z,7.26
2023-02-02T23:02:48.569Z,7.30
2023-02-02T23:05:16.267Z,7.31
2023-02-02T23:07:45.530Z,7.29
2023-02-02T23:10:14.443Z,7.34
2023-02-02T23:12:41.544Z,7.31
2023-02-02T23:15:08.554Z,7.34
2023-02-02T23:17:35.215Z,7.31
2023-02-02T23:20:06.840Z,7.30
2023-02-02T23:22:33.221Z,7.29
2023-02-02T23:24:59.940Z,7.27
2023-02-02T23:27:26.371Z,7.21
2023-02-02T23:29:52.709Z,7.18
2023-02-02T23:32:19.056Z,7.11
2023-02-02T23:34:45.442Z,7.08
2023-02-02T23:37:11.784Z,7.07
2023-02-02T23:39:38.151Z,7.07
2023-02-02T23:42:04.536Z,6.99
2023-02-02T23:44:30.924Z,6.94
2023-02-02T23:46:57.423Z,6.94
2023-02-02T23:49:24.012Z,6.85
2023-02-02T23:51:50.628Z,6.82
2023-02-02T23:54:17.121Z,6.89
2023-02-02T23:56:43.528Z,6.88
2023-02-02T23:59:09.901Z,6.96
